TAF KHVR
KHVR 270520Z 2706/2806 VRB06KT P6SM SCT250 FM280300 21012G22KT P6SM BKN250=
METAR KHVR
WC KHVR
WS KHVR
WV KHVR